Sv.knyaz Vladimir — UBKI2 — position and weather

sailwx.info

Track history (hours):
 
Tides and Currents Weather Stations Pressure Air Temp Water Temp Dewpoint Dewpoint Depression Visibility Wind Speed Wind Dir Waves Ship Positions

Sv.knyaz Vladimir

Last reported at 2015-Jun-11 11:31 UTC. Time now 2015-Jul-05 07:46 UTC.
Position N 44°40' E 036°01'.
Warning: this ship's position is 23 days out of date.

Length 128 m; draft 3.4 m.

Type: Cargo ship. MMSI: 273350360.

Date/timePositionNaut miles runAvg speedWind from/ knotsBaromVisibWave heightAir tempDewpointWater temp
2015-Jun-11 11:31N 44°40' E 036°01'10 8.4
2015-Jun-11 10:18N 44°33' E 035°51'7 8.3
2015-Jun-11 09:26N 44°29' E 035°43'7 8.5
2015-Jun-11 08:34N 44°24' E 035°36'9 8.7
2015-Jun-11 07:29N 44°18' E 035°25'8 8.9
2015-Jun-11 06:33N 44°13' E 035°16'9 8.7
2015-Jun-11 05:33N 44°08' E 035°06'8 8.5
2015-Jun-11 04:34N 44°03' E 034°56'17 8.5
2015-Jun-11 02:32N 43°54' E 034°36'270 8.9
2015-Jun-09 20:07N 41°25' E 029°31'6 9.5
2015-Jun-09 19:32N 41°22' E 029°25'29 6.9
2015-Jun-09 15:19N 40°59' E 028°60'3 3.9
2015-Jun-09 14:33N 40°57' E 028°58'3 2.7
2015-Jun-09 13:31N 40°58' E 028°55'0 0.0
2015-Jun-09 12:07N 40°58' E 028°55'0 0.0
2015-Jun-09 11:07N 40°58' E 028°55'  
2015-Jun-06 09:29N 37°43' E 024°19'411 7.9
2015-Jun-04 05:31N 36°26' E 015°53'10 8.7
2015-Jun-04 04:22N 36°26' E 015°40'8 8.7
2015-Jun-04 03:25N 36°26' E 015°30'11 8.8
2015-Jun-04 02:12N 36°27' E 015°17'6 8.8
2015-Jun-04 01:33N 36°27' E 015°10'9 8.9
2015-Jun-04 00:33N 36°27' E 014°59'9 8.9
2015-Jun-03 23:33N 36°28' E 014°48'9 9.4
2015-Jun-03 22:33N 36°29' E 014°36'9 9.3
2015-Jun-03 21:33N 36°31' E 014°25'9 9.1
2015-Jun-03 20:33N 36°34' E 014°14'9 9.2
2015-Jun-03 19:33N 36°36' E 014°03'9 9.2
2015-Jun-03 18:33N 36°39' E 013°52'9 9.1
2015-Jun-03 17:33N 36°42' E 013°41'9 9.5
2015-Jun-03 16:33N 36°45' E 013°30'10 9.7
2015-Jun-03 15:33N 36°48' E 013°18'10 9.7
2015-Jun-03 14:33N 36°51' E 013°07'9 9.4
2015-Jun-03 13:33N 36°54' E 012°56'10 9.5
2015-Jun-03 12:33N 36°57' E 012°44'10 9.6
2015-Jun-03 11:33N 36°60' E 012°33'9 9.3
2015-Jun-03 10:33N 37°03' E 012°22'9 9.2
2015-Jun-03 09:32N 37°06' E 012°11'9 9.1
2015-Jun-03 08:32N 37°08' E 011°60'9 8.9
2015-Jun-03 07:33N 37°11' E 011°49'9 8.9
2015-Jun-03 06:33N 37°14' E 011°39'9 9.0
2015-Jun-03 05:33N 37°17' E 011°28'10 8.6
2015-Jun-03 04:26N 37°20' E 011°17'8 8.7
2015-Jun-03 03:29N 37°22' E 011°07'10 8.8
2015-Jun-03 02:21N 37°25' E 010°55'35 9.0
2015-Jun-02 22:24N 37°33' E 010°11'8 9.0
2015-Jun-02 21:33N 37°34' E 010°02'28 9.3
2015-Jun-02 18:32N 37°36' E 009°26'19 9.1
2015-Jun-02 16:26N 37°37' E 009°02'16 8.2
2015-Jun-02 14:29N 37°36' E 008°42'8 7.9
2015-Jun-02 13:31N 37°35' E 008°33'8 7.9
2015-Jun-02 12:33N 37°35' E 008°23'17 8.3
2015-Jun-02 10:31N 37°33' E 008°02'66 9.0
2015-Jun-02 03:10N 37°27' E 006°39'8 9.0
2015-Jun-02 02:16N 37°26' E 006°29'6 8.9
2015-Jun-02 01:34N 37°26' E 006°21'9 8.4
2015-Jun-02 00:33N 37°25' E 006°10'8 8.0
2015-Jun-01 23:33N 37°24' E 006°00'8 7.9
2015-Jun-01 22:33N 37°23' E 005°50'11 8.0
2015-Jun-01 21:11N 37°23' E 005°37'68 8.7
2015-Jun-01 13:21N 37°15' E 004°11'7 8.7
2015-Jun-01 12:33N 37°13' E 004°03'9 8.7
2015-Jun-01 11:33N 37°11' E 003°52'  
Track history (hours):
 
Tides and Currents Weather Stations Pressure Air Temp Water Temp Dewpoint Dewpoint Depression Visibility Wind Speed Wind Dir Waves Ship Positions

Sv.knyaz Vladimir

Last reported at 2015-Jun-11 11:31 UTC. Time now 2015-Jul-05 07:46 UTC.
Position N 44°40' E 036°01'.
Warning: this ship's position is 23 days out of date.

Length 128 m; draft 3.4 m.

Type: Cargo ship. MMSI: 273350360.

Date/timePositionNaut miles runAvg speedWind from/ knotsBaromVisibWave heightAir tempDewpointWater temp
2015-Jun-11 11:31N 44°40' E 036°01'10 8.4
2015-Jun-11 10:18N 44°33' E 035°51'7 8.3
2015-Jun-11 09:26N 44°29' E 035°43'7 8.5
2015-Jun-11 08:34N 44°24' E 035°36'9 8.7
2015-Jun-11 07:29N 44°18' E 035°25'8 8.9
2015-Jun-11 06:33N 44°13' E 035°16'9 8.7
2015-Jun-11 05:33N 44°08' E 035°06'8 8.5
2015-Jun-11 04:34N 44°03' E 034°56'17 8.5
2015-Jun-11 02:32N 43°54' E 034°36'270 8.9
2015-Jun-09 20:07N 41°25' E 029°31'6 9.5
2015-Jun-09 19:32N 41°22' E 029°25'29 6.9
2015-Jun-09 15:19N 40°59' E 028°60'3 3.9
2015-Jun-09 14:33N 40°57' E 028°58'3 2.7
2015-Jun-09 13:31N 40°58' E 028°55'0 0.0
2015-Jun-09 12:07N 40°58' E 028°55'0 0.0
2015-Jun-09 11:07N 40°58' E 028°55'  
2015-Jun-06 09:29N 37°43' E 024°19'411 7.9
2015-Jun-04 05:31N 36°26' E 015°53'10 8.7
2015-Jun-04 04:22N 36°26' E 015°40'8 8.7
2015-Jun-04 03:25N 36°26' E 015°30'11 8.8
2015-Jun-04 02:12N 36°27' E 015°17'6 8.8
2015-Jun-04 01:33N 36°27' E 015°10'9 8.9
2015-Jun-04 00:33N 36°27' E 014°59'9 8.9
2015-Jun-03 23:33N 36°28' E 014°48'9 9.4
2015-Jun-03 22:33N 36°29' E 014°36'9 9.3
2015-Jun-03 21:33N 36°31' E 014°25'9 9.1
2015-Jun-03 20:33N 36°34' E 014°14'9 9.2
2015-Jun-03 19:33N 36°36' E 014°03'9 9.2
2015-Jun-03 18:33N 36°39' E 013°52'9 9.1
2015-Jun-03 17:33N 36°42' E 013°41'9 9.5
2015-Jun-03 16:33N 36°45' E 013°30'10 9.7
2015-Jun-03 15:33N 36°48' E 013°18'10 9.7
2015-Jun-03 14:33N 36°51' E 013°07'9 9.4
2015-Jun-03 13:33N 36°54' E 012°56'10 9.5
2015-Jun-03 12:33N 36°57' E 012°44'10 9.6
2015-Jun-03 11:33N 36°60' E 012°33'9 9.3
2015-Jun-03 10:33N 37°03' E 012°22'9 9.2
2015-Jun-03 09:32N 37°06' E 012°11'9 9.1
2015-Jun-03 08:32N 37°08' E 011°60'9 8.9
2015-Jun-03 07:33N 37°11' E 011°49'9 8.9
2015-Jun-03 06:33N 37°14' E 011°39'9 9.0
2015-Jun-03 05:33N 37°17' E 011°28'10 8.6
2015-Jun-03 04:26N 37°20' E 011°17'8 8.7
2015-Jun-03 03:29N 37°22' E 011°07'10 8.8
2015-Jun-03 02:21N 37°25' E 010°55'35 9.0
2015-Jun-02 22:24N 37°33' E 010°11'8 9.0
2015-Jun-02 21:33N 37°34' E 010°02'28 9.3
2015-Jun-02 18:32N 37°36' E 009°26'19 9.1
2015-Jun-02 16:26N 37°37' E 009°02'16 8.2
2015-Jun-02 14:29N 37°36' E 008°42'8 7.9
2015-Jun-02 13:31N 37°35' E 008°33'8 7.9
2015-Jun-02 12:33N 37°35' E 008°23'17 8.3
2015-Jun-02 10:31N 37°33' E 008°02'66 9.0
2015-Jun-02 03:10N 37°27' E 006°39'8 9.0
2015-Jun-02 02:16N 37°26' E 006°29'6 8.9
2015-Jun-02 01:34N 37°26' E 006°21'9 8.4
2015-Jun-02 00:33N 37°25' E 006°10'8 8.0
2015-Jun-01 23:33N 37°24' E 006°00'8 7.9
2015-Jun-01 22:33N 37°23' E 005°50'11 8.0
2015-Jun-01 21:11N 37°23' E 005°37'68 8.7
2015-Jun-01 13:21N 37°15' E 004°11'7 8.7
2015-Jun-01 12:33N 37°13' E 004°03'9 8.7
2015-Jun-01 11:33N 37°11' E 003°52'  

Dump ship's entire track history